createdAt,value
2023-02-13T00:00:06.882Z,20.67
2023-02-13T00:02:33.499Z,24.00
2023-02-13T00:04:59.962Z,20.92
2023-02-13T00:07:26.343Z,19.80
2023-02-13T00:09:52.735Z,23.25
2023-02-13T00:12:19.224Z,23.83
2023-02-13T00:14:45.701Z,23.05
2023-02-13T00:17:12.146Z,21.02
2023-02-13T00:19:38.535Z,24.83
2023-02-13T00:22:04.887Z,21.30
2023-02-13T00:24:31.450Z,19.58
2023-02-13T00:26:57.825Z,21.08
2023-02-13T00:29:24.225Z,20.17
2023-02-13T00:31:50.857Z,23.47
2023-02-13T00:34:17.293Z,18.85
2023-02-13T00:36:46.658Z,20.67
2023-02-13T00:39:13.205Z,21.60
2023-02-13T00:41:39.951Z,18.58
2023-02-13T00:44:06.527Z,20.13
2023-02-13T00:46:33.111Z,23.35
2023-02-13T00:48:59.520Z,19.83
2023-02-13T00:51:25.909Z,19.63
2023-02-13T00:53:52.331Z,22.20
2023-02-13T00:56:18.777Z,20.60
2023-02-13T00:58:45.789Z,21.35
2023-02-13T01:01:12.313Z,24.33
2023-02-13T01:03:39.048Z,25.13
2023-02-13T01:06:06.496Z,17.75
2023-02-13T01:08:33.444Z,22.30
2023-02-13T01:11:00.497Z,21.08
2023-02-13T01:13:27.450Z,23.77
2023-02-13T01:15:53.989Z,22.45
2023-02-13T01:18:20.840Z,21.75
2023-02-13T01:21:01.048Z,21.27
2023-02-13T01:23:31.709Z,18.90
2023-02-13T01:25:58.157Z,21.33
2023-02-13T01:28:24.821Z,22.60
2023-02-13T01:30:58.566Z,18.98
2023-02-13T01:33:27.572Z,20.13
2023-02-13T01:35:54.411Z,21.80
2023-02-13T01:38:21.465Z,20.77
2023-02-13T01:40:53.401Z,23.73
2023-02-13T01:43:23.346Z,18.38
2023-02-13T01:45:56.269Z,19.83
2023-02-13T01:48:25.967Z,20.73
2023-02-13T01:51:00.834Z,22.27
2023-02-13T01:53:43.636Z,22.15
2023-02-13T01:56:28.601Z,19.63
2023-02-13T01:59:00.477Z,23.13
2023-02-13T02:01:28.390Z,20.10
2023-02-13T02:04:03.756Z,19.10
2023-02-13T02:06:36.008Z,23.17
2023-02-13T02:09:07.909Z,21.08
2023-02-13T02:11:52.285Z,21.33
2023-02-13T02:14:19.757Z,19.88
2023-02-13T02:16:46.219Z,20.98
2023-02-13T02:19:23.912Z,18.52
2023-02-13T02:22:06.580Z,20.30
2023-02-13T02:25:05.010Z,20.20
2023-02-13T02:27:37.529Z,21.02
2023-02-13T02:30:46.024Z,21.50
2023-02-13T02:33:38.898Z,20.60
2023-02-13T02:36:26.702Z,20.80
2023-02-13T02:39:18.135Z,19.30
2023-02-13T02:41:59.723Z,22.05
2023-02-13T02:44:45.642Z,22.92
2023-02-13T02:47:55.969Z,19.38
2023-02-13T02:50:34.351Z,19.73
2023-02-13T02:53:14.235Z,21.00
2023-02-13T02:56:02.648Z,27.10
2023-02-13T02:59:11.207Z,22.30
2023-02-13T03:01:57.893Z,19.92
2023-02-13T03:04:58.038Z,18.25
2023-02-13T03:07:24.668Z,18.93
2023-02-13T03:10:22.699Z,22.77
2023-02-13T03:13:36.989Z,17.88
2023-02-13T03:16:22.907Z,19.83
2023-02-13T03:19:16.205Z,22.50
2023-02-13T03:22:08.926Z,16.87
2023-02-13T03:24:59.594Z,21.42
2023-02-13T03:28:02.647Z,25.95
2023-02-13T03:31:03.120Z,18.65
2023-02-13T03:33:38.194Z,19.52
2023-02-13T03:36:35.833Z,18.20
2023-02-13T03:39:11.135Z,20.67
2023-02-13T03:41:42.904Z,21.58
2023-02-13T03:44:27.789Z,20.30
2023-02-13T03:46:58.560Z,23.73
2023-02-13T03:49:49.653Z,22.47
2023-02-13T03:52:29.468Z,21.17
2023-02-13T03:55:23.505Z,22.00
2023-02-13T03:58:11.742Z,22.77
2023-02-13T04:00:42.909Z,20.88
2023-02-13T04:03:31.164Z,24.50
2023-02-13T04:06:10.983Z,21.60
2023-02-13T04:08:37.685Z,24.63
2023-02-13T04:11:13.914Z,22.27
2023-02-13T04:13:57.701Z,22.23
2023-02-13T04:16:35.612Z,20.33
2023-02-13T04:19:03.655Z,24.30
2023-02-13T04:21:36.727Z,19.95
2023-02-13T04:24:03.510Z,21.50
2023-02-13T04:26:36.543Z,20.10
2023-02-13T04:29:03.467Z,19.33
2023-02-13T04:31:30.063Z,19.25
2023-02-13T04:33:56.967Z,22.08
2023-02-13T04:36:23.514Z,19.60
2023-02-13T04:38:50.774Z,24.75
2023-02-13T04:41:17.408Z,18.80
2023-02-13T04:43:44.993Z,22.27
2023-02-13T04:46:11.622Z,22.83
2023-02-13T04:48:38.955Z,19.27
2023-02-13T04:51:05.744Z,25.17
2023-02-13T04:53:32.473Z,20.90
2023-02-13T04:55:58.873Z,25.85
2023-02-13T04:58:25.371Z,22.25
2023-02-13T05:00:51.742Z,24.45
2023-02-13T05:03:18.355Z,20.88
2023-02-13T05:05:44.755Z,19.73
2023-02-13T05:08:11.506Z,22.40
2023-02-13T05:10:37.878Z,22.48
2023-02-13T05:13:04.340Z,24.13
2023-02-13T05:15:30.859Z,24.50
2023-02-13T05:17:57.511Z,20.57
2023-02-13T05:20:23.969Z,23.35
2023-02-13T05:23:11.458Z,24.77
2023-02-13T05:25:40.547Z,21.20
2023-02-13T05:28:26.561Z,24.52
2023-02-13T05:30:53.294Z,26.27
2023-02-13T05:33:19.754Z,23.23
2023-02-13T05:35:46.165Z,24.13
2023-02-13T05:38:12.566Z,23.42
2023-02-13T05:40:39.036Z,23.95
2023-02-13T05:43:05.562Z,24.80
2023-02-13T05:45:31.997Z,23.45
2023-02-13T05:47:58.426Z,23.00
2023-02-13T05:50:24.818Z,28.38
2023-02-13T05:52:51.194Z,22.50
2023-02-13T05:55:17.623Z,21.77
2023-02-13T05:57:44.134Z,25.73
2023-02-13T06:00:11.033Z,27.15
2023-02-13T06:02:37.422Z,24.13
2023-02-13T06:05:04.060Z,26.27
2023-02-13T06:07:30.448Z,21.83
2023-02-13T06:09:59.488Z,25.20
2023-02-13T06:12:25.823Z,25.42
2023-02-13T06:14:52.225Z,26.10
2023-02-13T06:17:18.652Z,23.65
2023-02-13T06:19:45.092Z,24.93
2023-02-13T06:22:11.449Z,27.88
2023-02-13T06:24:37.929Z,23.20
2023-02-13T06:27:04.293Z,28.58
2023-02-13T06:29:32.939Z,26.02
2023-02-13T06:31:59.747Z,37.70
2023-02-13T06:34:26.284Z,26.45
2023-02-13T06:36:52.806Z,26.65
2023-02-13T06:39:19.318Z,23.20
2023-02-13T06:41:45.814Z,21.77
2023-02-13T06:44:12.235Z,24.80
2023-02-13T06:46:38.683Z,27.10
2023-02-13T06:49:05.381Z,24.05
2023-02-13T06:51:31.777Z,29.27
2023-02-13T06:53:58.177Z,25.30
2023-02-13T06:56:26.364Z,27.70
2023-02-13T06:58:52.853Z,29.25
2023-02-13T07:01:19.328Z,23.23
2023-02-13T07:03:47.051Z,26.95
2023-02-13T07:06:20.781Z,26.55
2023-02-13T07:08:47.495Z,26.50
2023-02-13T07:11:20.696Z,23.42
2023-02-13T07:13:47.215Z,24.08
2023-02-13T07:16:13.725Z,24.52
2023-02-13T07:18:40.253Z,26.95
2023-02-13T07:21:07.455Z,23.17
2023-02-13T07:23:34.032Z,30.67
2023-02-13T07:26:01.309Z,23.63
2023-02-13T07:28:29.336Z,26.95
2023-02-13T07:30:56.585Z,28.90
2023-02-13T07:33:24.833Z,29.53
2023-02-13T07:35:52.401Z,25.45
2023-02-13T07:38:19.129Z,26.88
2023-02-13T07:40:45.611Z,27.70
2023-02-13T07:43:13.324Z,28.73
2023-02-13T07:45:39.871Z,31.43
2023-02-13T07:48:06.607Z,29.23
2023-02-13T07:50:33.312Z,30.05
2023-02-13T07:53:02.169Z,29.75
2023-02-13T07:55:30.047Z,27.83
2023-02-13T07:57:56.999Z,30.77
2023-02-13T08:00:23.489Z,29.25
2023-02-13T08:02:49.945Z,28.45
2023-02-13T08:05:16.499Z,30.77
2023-02-13T08:07:42.920Z,30.15
2023-02-13T08:10:31.178Z,28.60
2023-02-13T08:12:58.008Z,32.63
2023-02-13T08:15:24.400Z,26.58
2023-02-13T08:17:50.828Z,26.77
2023-02-13T08:20:17.441Z,26.77
2023-02-13T08:22:43.989Z,27.27
2023-02-13T08:25:10.835Z,29.25
2023-02-13T08:27:38.115Z,30.08
2023-02-13T08:30:05.641Z,26.00
2023-02-13T08:32:39.509Z,28.33
2023-02-13T08:35:18.513Z,26.83
2023-02-13T08:37:46.630Z,24.50
2023-02-13T08:40:14.270Z,22.80
2023-02-13T08:42:40.702Z,27.98
2023-02-13T08:45:07.522Z,25.63
2023-02-13T08:47:34.023Z,24.33
2023-02-13T08:50:00.492Z,24.73
2023-02-13T08:52:29.982Z,28.95
2023-02-13T08:54:56.571Z,24.13
2023-02-13T08:57:22.968Z,26.23
2023-02-13T08:59:49.457Z,24.00
2023-02-13T09:02:15.956Z,22.02
2023-02-13T09:04:42.457Z,25.70
2023-02-13T09:07:09.127Z,24.38
2023-02-13T09:09:35.508Z,22.90
2023-02-13T09:12:01.865Z,24.83
2023-02-13T09:14:28.342Z,27.75
2023-02-13T09:16:54.827Z,23.88
2023-02-13T09:19:21.315Z,25.35
2023-02-13T09:21:47.923Z,20.48
2023-02-13T09:24:14.332Z,22.67
2023-02-13T09:26:40.753Z,22.30
2023-02-13T09:29:07.227Z,19.65
2023-02-13T09:31:33.799Z,23.55
2023-02-13T09:34:00.221Z,25.33
2023-02-13T09:36:26.783Z,23.33
2023-02-13T09:38:55.323Z,22.63
2023-02-13T09:41:42.076Z,20.00
2023-02-13T09:44:34.108Z,20.17
2023-02-13T09:47:51.399Z,21.98
2023-02-13T09:50:31.518Z,19.57
2023-02-13T09:52:59.700Z,22.83
2023-02-13T09:55:37.393Z,19.10
2023-02-13T09:58:16.602Z,18.90
2023-02-13T10:00:47.837Z,20.00
2023-02-13T10:03:19.933Z,20.07
2023-02-13T10:06:11.426Z,21.85
2023-02-13T10:09:01.869Z,21.65
2023-02-13T10:11:48.420Z,21.08
2023-02-13T10:14:24.626Z,19.20
2023-02-13T10:16:58.538Z,22.37
2023-02-13T10:19:46.775Z,19.63
2023-02-13T10:22:15.584Z,21.08
2023-02-13T10:24:54.717Z,23.23
2023-02-13T10:27:25.429Z,21.33
2023-02-13T10:30:12.402Z,21.97
2023-02-13T10:33:11.179Z,18.10
2023-02-13T10:35:38.869Z,21.25
2023-02-13T10:38:20.441Z,19.52
2023-02-13T10:41:02.829Z,22.00
2023-02-13T10:43:33.045Z,19.77
2023-02-13T10:46:05.452Z,18.15
2023-02-13T10:48:37.282Z,21.38
2023-02-13T10:51:27.055Z,22.42
2023-02-13T10:54:20.827Z,20.25
2023-02-13T10:56:54.864Z,20.50
2023-02-13T10:59:35.427Z,20.13
2023-02-13T11:02:03.755Z,21.85
2023-02-13T11:04:30.333Z,24.80
2023-02-13T11:07:02.096Z,20.60
2023-02-13T11:09:31.372Z,23.20
2023-02-13T11:11:57.754Z,26.35
2023-02-13T11:14:26.446Z,20.80
2023-02-13T11:17:07.347Z,22.95
2023-02-13T11:19:35.658Z,20.55
2023-02-13T11:22:06.426Z,18.40
2023-02-13T11:24:33.841Z,19.30
2023-02-13T11:27:09.357Z,22.83
2023-02-13T11:29:37.583Z,18.40
2023-02-13T11:32:19.455Z,21.42
2023-02-13T11:34:47.437Z,20.97
2023-02-13T11:37:15.309Z,18.75
2023-02-13T11:39:43.379Z,21.40
2023-02-13T11:42:33.528Z,18.42
2023-02-13T11:45:08.253Z,18.25
2023-02-13T11:47:40.908Z,21.43
2023-02-13T11:50:27.907Z,19.80
2023-02-13T11:53:09.010Z,21.55
2023-02-13T11:55:42.668Z,18.92
2023-02-13T11:58:12.158Z,18.25
2023-02-13T12:00:41.296Z,20.80
2023-02-13T12:03:30.917Z,16.83
2023-02-13T12:06:15.581Z,17.02
2023-02-13T12:08:45.952Z,19.60
2023-02-13T12:11:38.976Z,17.10
2023-02-13T12:14:05.933Z,16.27
2023-02-13T12:16:41.203Z,18.48
2023-02-13T12:19:20.203Z,18.75
2023-02-13T12:22:15.042Z,17.77
2023-02-13T12:25:21.235Z,18.58
2023-02-13T12:27:57.170Z,20.10
2023-02-13T12:31:01.295Z,17.92
2023-02-13T12:33:34.018Z,18.35
2023-02-13T12:36:14.590Z,18.15
2023-02-13T12:38:57.124Z,17.50
2023-02-13T12:41:36.311Z,20.03
2023-02-13T12:44:24.394Z,21.67
2023-02-13T12:47:22.063Z,17.77
2023-02-13T12:50:23.825Z,18.05
2023-02-13T12:53:58.314Z,21.35
2023-02-13T12:56:40.474Z,18.13
2023-02-13T12:59:11.707Z,19.63
2023-02-13T13:01:54.089Z,19.13
2023-02-13T13:04:26.267Z,18.45
2023-02-13T13:07:01.511Z,18.02
2023-02-13T13:09:39.673Z,18.53
2023-02-13T13:12:22.099Z,18.23
2023-02-13T13:15:31.761Z,15.70
2023-02-13T13:18:16.106Z,17.40
2023-02-13T13:21:00.344Z,17.52
2023-02-13T13:23:36.884Z,18.37
2023-02-13T13:26:26.245Z,15.60
2023-02-13T13:28:56.435Z,15.45
2023-02-13T13:31:26.563Z,19.77
2023-02-13T13:33:55.639Z,17.05
2023-02-13T13:36:33.111Z,16.43
2023-02-13T13:39:21.707Z,16.92
2023-02-13T13:42:02.324Z,16.75
2023-02-13T13:44:53.794Z,15.65
2023-02-13T13:47:49.068Z,14.02
2023-02-13T13:50:24.616Z,18.13
2023-02-13T13:53:15.548Z,16.10
2023-02-13T13:55:51.625Z,16.65
2023-02-13T13:58:33.421Z,22.33
2023-02-13T14:01:23.018Z,18.92
2023-02-13T14:04:04.747Z,18.50
2023-02-13T14:06:43.475Z,18.63
2023-02-13T14:09:37.775Z,17.17
2023-02-13T14:12:46.896Z,16.83
2023-02-13T14:15:34.873Z,17.60
2023-02-13T14:18:14.483Z,15.57
2023-02-13T14:20:52.523Z,17.35
2023-02-13T14:23:50.192Z,20.23
2023-02-13T14:26:16.662Z,17.10
2023-02-13T14:28:56.657Z,16.48
2023-02-13T14:31:33.309Z,16.93
2023-02-13T14:34:03.919Z,21.15
2023-02-13T14:36:34.002Z,18.75
2023-02-13T14:39:04.953Z,15.65
2023-02-13T14:42:23.651Z,16.98
2023-02-13T14:44:52.910Z,19.57
2023-02-13T14:47:29.104Z,16.40
2023-02-13T14:49:56.445Z,16.75
2023-02-13T14:52:27.600Z,19.45
2023-02-13T14:54:59.993Z,16.38
2023-02-13T14:57:29.848Z,15.40
2023-02-13T15:00:01.172Z,15.57
2023-02-13T15:02:35.887Z,18.40
2023-02-13T15:05:07.298Z,18.33
2023-02-13T15:07:46.703Z,16.20
2023-02-13T15:10:45.237Z,15.37
2023-02-13T15:13:18.368Z,17.83
2023-02-13T15:15:58.820Z,15.48
2023-02-13T15:18:29.273Z,16.98
2023-02-13T15:21:02.307Z,18.00
2023-02-13T15:23:38.928Z,18.33
2023-02-13T15:26:07.406Z,15.05
2023-02-13T15:28:35.586Z,15.43
2023-02-13T15:31:20.146Z,19.30
2023-02-13T15:33:48.832Z,14.88
2023-02-13T15:36:28.389Z,20.00
2023-02-13T15:39:09.703Z,17.63
2023-02-13T15:41:43.668Z,17.38
2023-02-13T15:44:18.264Z,18.00
2023-02-13T15:46:48.168Z,16.88
2023-02-13T15:49:17.838Z,14.80
2023-02-13T15:51:44.923Z,16.98
2023-02-13T15:54:27.115Z,14.77
2023-02-13T15:56:56.973Z,17.00
2023-02-13T15:59:27.629Z,15.68
2023-02-13T16:01:54.569Z,18.73
2023-02-13T16:04:21.707Z,18.90
2023-02-13T16:06:50.588Z,17.15
2023-02-13T16:09:35.727Z,15.88
2023-02-13T16:12:14.441Z,16.15
2023-02-13T16:14:49.844Z,15.50
2023-02-13T16:17:23.738Z,17.80
2023-02-13T16:19:58.731Z,15.95
2023-02-13T16:22:34.011Z,16.92
2023-02-13T16:25:18.553Z,15.25
2023-02-13T16:27:56.962Z,17.97
2023-02-13T16:30:25.367Z,16.95
2023-02-13T16:32:52.017Z,21.90
2023-02-13T16:35:18.405Z,19.85
2023-02-13T16:37:56.418Z,15.23
2023-02-13T16:40:32.793Z,19.40
2023-02-13T16:43:34.722Z,18.95
2023-02-13T16:46:26.333Z,18.70
2023-02-13T16:48:59.156Z,18.10
2023-02-13T16:51:42.066Z,24.50
2023-02-13T16:54:11.359Z,20.03
2023-02-13T16:56:39.532Z,19.75
2023-02-13T16:59:33.707Z,15.85
2023-02-13T17:02:23.429Z,17.20
2023-02-13T17:04:51.345Z,17.45
2023-02-13T17:07:33.744Z,19.93
2023-02-13T17:10:03.726Z,18.92
2023-02-13T17:12:33.826Z,18.48
2023-02-13T17:15:00.473Z,19.88
2023-02-13T17:17:29.704Z,17.45
2023-02-13T17:19:56.646Z,21.00
2023-02-13T17:22:34.431Z,17.10
2023-02-13T17:25:03.560Z,18.15
2023-02-13T17:27:30.349Z,22.85
2023-02-13T17:29:56.786Z,21.33
2023-02-13T17:32:25.985Z,17.60
2023-02-13T17:34:52.740Z,20.55
2023-02-13T17:37:23.562Z,18.40
2023-02-13T17:39:50.821Z,22.90
2023-02-13T17:42:21.879Z,25.05
2023-02-13T17:44:48.965Z,22.90
2023-02-13T17:47:15.757Z,23.83
2023-02-13T17:49:42.250Z,22.17
2023-02-13T17:52:14.062Z,21.45
2023-02-13T17:54:40.635Z,22.20
2023-02-13T17:57:07.213Z,18.60
2023-02-13T17:59:33.614Z,23.25
2023-02-13T18:02:00.126Z,21.48
2023-02-13T18:04:26.544Z,23.95
2023-02-13T18:06:53.586Z,24.85
2023-02-13T18:09:20.770Z,18.77
2023-02-13T18:12:04.628Z,21.02
2023-02-13T18:14:32.428Z,19.67
2023-02-13T18:16:58.897Z,22.45
2023-02-13T18:19:26.171Z,22.10
2023-02-13T18:21:52.957Z,32.00
2023-02-13T18:24:19.477Z,21.67
2023-02-13T18:26:45.994Z,24.00
2023-02-13T18:29:12.511Z,18.10
2023-02-13T18:31:40.059Z,23.10
2023-02-13T18:34:06.664Z,23.33
2023-02-13T18:36:33.166Z,20.23
2023-02-13T18:38:59.588Z,24.05
2023-02-13T18:41:26.114Z,21.48
2023-02-13T18:43:52.512Z,19.35
2023-02-13T18:46:19.015Z,25.93
2023-02-13T18:48:45.475Z,21.98
2023-02-13T18:51:11.840Z,23.65
2023-02-13T18:53:38.203Z,22.40
2023-02-13T18:56:07.478Z,23.50
2023-02-13T18:58:34.516Z,20.77
2023-02-13T19:01:14.038Z,25.25
2023-02-13T19:03:40.929Z,21.88
2023-02-13T19:06:09.649Z,24.05
2023-02-13T19:08:36.806Z,21.30
2023-02-13T19:11:05.663Z,20.67
2023-02-13T19:13:33.032Z,18.92
2023-02-13T19:16:11.634Z,17.45
2023-02-13T19:18:43.508Z,16.27
2023-02-13T19:21:10.027Z,20.40
2023-02-13T19:23:38.017Z,15.40
2023-02-13T19:26:08.736Z,18.08
2023-02-13T19:28:35.574Z,14.95
2023-02-13T19:31:06.422Z,18.63
2023-02-13T19:33:34.420Z,18.70
2023-02-13T19:36:06.443Z,18.23
2023-02-13T19:38:32.916Z,22.77
2023-02-13T19:41:04.620Z,19.77
2023-02-13T19:43:31.495Z,21.42
2023-02-13T19:46:01.812Z,25.83
2023-02-13T19:48:28.430Z,26.23
2023-02-13T19:50:54.863Z,24.38
2023-02-13T19:53:21.363Z,26.50
2023-02-13T19:55:47.882Z,23.50
2023-02-13T19:58:14.288Z,25.30
2023-02-13T20:00:40.896Z,24.73
2023-02-13T20:03:07.455Z,25.42
2023-02-13T20:05:42.867Z,20.85
2023-02-13T20:08:09.973Z,22.88
2023-02-13T20:10:36.548Z,23.25
2023-02-13T20:13:04.135Z,26.27
2023-02-13T20:15:32.423Z,21.08
2023-02-13T20:17:59.004Z,26.67
2023-02-13T20:20:27.793Z,21.63
2023-02-13T20:22:54.205Z,21.05
2023-02-13T20:25:22.093Z,23.77
2023-02-13T20:27:48.588Z,23.38
2023-02-13T20:30:15.988Z,21.95
2023-02-13T20:32:43.874Z,21.92
2023-02-13T20:35:10.472Z,24.42
2023-02-13T20:37:36.937Z,24.57
2023-02-13T20:40:03.775Z,26.23
2023-02-13T20:42:33.347Z,24.52
2023-02-13T20:45:00.208Z,24.88
2023-02-13T20:47:26.668Z,23.35
2023-02-13T20:49:53.178Z,25.47
2023-02-13T20:52:19.743Z,25.85
2023-02-13T20:54:47.359Z,23.30
2023-02-13T20:57:15.587Z,22.70
2023-02-13T20:59:43.687Z,22.40
2023-02-13T21:02:11.949Z,27.63
2023-02-13T21:04:38.393Z,28.50
2023-02-13T21:07:09.167Z,27.13
2023-02-13T21:09:37.030Z,28.15
2023-02-13T21:12:04.741Z,28.13
2023-02-13T21:14:31.372Z,25.93
2023-02-13T21:16:57.878Z,27.00
2023-02-13T21:19:24.379Z,24.60
2023-02-13T21:21:50.914Z,25.75
2023-02-13T21:24:21.166Z,26.63
2023-02-13T21:26:49.832Z,28.73
2023-02-13T21:29:16.357Z,26.85
2023-02-13T21:31:47.677Z,24.55
2023-02-13T21:34:15.331Z,26.13
2023-02-13T21:36:41.831Z,26.83
2023-02-13T21:39:10.247Z,26.77
2023-02-13T21:41:39.200Z,29.52
2023-02-13T21:44:05.831Z,25.75
2023-02-13T21:46:33.378Z,27.33
2023-02-13T21:49:05.448Z,24.25
2023-02-13T21:51:34.056Z,20.47
2023-02-13T21:54:01.272Z,21.77
2023-02-13T21:56:33.950Z,22.67
2023-02-13T21:59:00.722Z,21.88
2023-02-13T22:01:29.653Z,21.77
2023-02-13T22:04:00.538Z,23.10
2023-02-13T22:06:29.528Z,24.88
2023-02-13T22:09:07.762Z,22.88
2023-02-13T22:11:35.180Z,24.13
2023-02-13T22:14:04.259Z,18.98
2023-02-13T22:16:32.888Z,25.17
2023-02-13T22:19:00.363Z,23.38
2023-02-13T22:21:28.712Z,22.13
2023-02-13T22:23:55.706Z,20.95
2023-02-13T22:26:23.532Z,25.73
2023-02-13T22:28:51.080Z,20.83
2023-02-13T22:31:18.605Z,24.00
2023-02-13T22:33:52.390Z,25.58
2023-02-13T22:36:25.804Z,28.48
2023-02-13T22:38:52.717Z,23.02
2023-02-13T22:41:22.511Z,25.53
2023-02-13T22:43:49.907Z,23.13
2023-02-13T22:46:22.522Z,26.95
2023-02-13T22:48:52.021Z,24.38
2023-02-13T22:51:22.825Z,23.88
2023-02-13T22:53:51.912Z,27.63
2023-02-13T22:56:18.294Z,27.38
2023-02-13T22:58:44.659Z,25.48
2023-02-13T23:01:19.457Z,28.85
2023-02-13T23:03:46.188Z,26.02
2023-02-13T23:06:14.178Z,26.80
2023-02-13T23:08:41.360Z,23.35
2023-02-13T23:11:30.088Z,31.60
2023-02-13T23:13:56.632Z,24.75
2023-02-13T23:16:23.436Z,29.40
2023-02-13T23:18:54.868Z,28.53
2023-02-13T23:21:22.059Z,27.45
2023-02-13T23:23:48.795Z,24.73
2023-02-13T23:26:15.764Z,20.17
2023-02-13T23:28:42.492Z,25.02
2023-02-13T23:31:09.031Z,28.10
2023-02-13T23:33:35.681Z,28.27
2023-02-13T23:36:02.300Z,26.60
2023-02-13T23:38:28.784Z,24.48
2023-02-13T23:40:55.287Z,26.98
2023-02-13T23:43:21.778Z,25.07
2023-02-13T23:45:48.305Z,24.95
2023-02-13T23:48:14.859Z,26.63
2023-02-13T23:50:41.387Z,25.65
2023-02-13T23:53:07.873Z,23.00
2023-02-13T23:55:34.347Z,24.23
2023-02-13T23:58:00.995Z,21.58
